sensor_id;sensor_type;location;lat;lon;timestamp;pressure;altitude;pressure_sealevel;temperature;humidity
55077;BME280;40971;44.702;11.030;2022-08-19T00:00:16;100732.22;;;20.55;100.00
55077;BME280;40971;44.702;11.030;2022-08-19T00:02:42;100743.81;;;20.54;100.00
55077;BME280;40971;44.702;11.030;2022-08-19T00:05:09;100759.97;;;20.61;100.00
55077;BME280;40971;44.702;11.030;2022-08-19T06:22:53;100726.66;;;17.62;100.00
55077;BME280;40971;44.702;11.030;2022-08-19T06:25:18;100617.91;;;16.95;100.00
55077;BME280;40971;44.702;11.030;2022-08-19T06:27:44;100712.44;;;17.54;100.00
55077;BME280;40971;44.702;11.030;2022-08-19T06:30:10;100715.06;;;17.54;100.00
55077;BME280;40971;44.702;11.030;2022-08-19T06:32:37;100687.47;;;17.26;100.00
55077;BME280;40971;44.702;11.030;2022-08-19T06:35:03;100712.84;;;17.38;100.00
55077;BME280;40971;44.702;11.030;2022-08-19T06:37:29;100692.63;;;17.27;100.00
55077;BME280;40971;44.702;11.030;2022-08-19T06:39:55;100737.22;;;17.62;100.00
55077;BME280;40971;44.702;11.030;2022-08-19T06:42:20;100649.75;;;17.14;100.00
55077;BME280;40971;44.702;11.030;2022-08-19T06:44:47;100721.00;;;17.67;100.00
55077;BME280;40971;44.702;11.030;2022-08-19T06:47:17;100716.19;;;17.72;100.00
55077;BME280;40971;44.702;11.030;2022-08-19T06:49:43;100713.00;;;17.68;100.00
55077;BME280;40971;44.702;11.030;2022-08-19T06:52:09;100743.53;;;17.82;100.00
55077;BME280;40971;44.702;11.030;2022-08-19T06:54:38;100743.59;;;17.71;100.00
55077;BME280;40971;44.702;11.030;2022-08-19T06:57:05;100768.03;;;17.84;100.00
55077;BME280;40971;44.702;11.030;2022-08-19T06:59:32;100765.63;;;17.81;100.00
55077;BME280;40971;44.702;11.030;2022-08-19T07:02:00;100776.53;;;17.88;100.00
55077;BME280;40971;44.702;11.030;2022-08-19T07:04:29;100780.25;;;17.85;100.00
55077;BME280;40971;44.702;11.030;2022-08-19T07:07:01;100757.06;;;17.89;100.00
55077;BME280;40971;44.702;11.030;2022-08-19T07:09:28;100764.41;;;17.85;100.00
55077;BME280;40971;44.702;11.030;2022-08-19T07:11:55;100759.13;;;17.85;100.00
55077;BME280;40971;44.702;11.030;2022-08-19T07:14:24;100759.00;;;17.87;100.00
55077;BME280;40971;44.702;11.030;2022-08-19T07:16:52;100765.69;;;17.91;100.00
55077;BME280;40971;44.702;11.030;2022-08-19T07:19:20;100760.34;;;17.81;100.00
55077;BME280;40971;44.702;11.030;2022-08-19T07:21:48;100727.03;;;17.58;100.00
55077;BME280;40971;44.702;11.030;2022-08-19T07:24:15;100770.56;;;17.74;100.00
55077;BME280;40971;44.702;11.030;2022-08-19T07:26:42;100698.28;;;17.23;100.00
55077;BME280;40971;44.702;11.030;2022-08-19T07:29:09;100777.66;;;17.63;100.00
55077;BME280;40971;44.702;11.030;2022-08-19T07:31:35;100733.84;;;17.39;100.00
55077;BME280;40971;44.702;11.030;2022-08-19T07:34:03;100770.84;;;17.60;100.00
55077;BME280;40971;44.702;11.030;2022-08-19T07:36:32;100770.34;;;17.66;100.00
55077;BME280;40971;44.702;11.030;2022-08-19T07:39:00;100791.31;;;17.79;100.00
55077;BME280;40971;44.702;11.030;2022-08-19T07:41:28;100798.28;;;17.80;100.00
55077;BME280;40971;44.702;11.030;2022-08-19T07:43:55;100782.69;;;17.77;100.00
55077;BME280;40971;44.702;11.030;2022-08-19T07:46:21;100706.63;;;17.39;100.00
55077;BME280;40971;44.702;11.030;2022-08-19T07:48:49;100793.47;;;18.06;100.00
55077;BME280;40971;44.702;11.030;2022-08-19T07:51:20;100813.19;;;18.23;100.00
55077;BME280;40971;44.702;11.030;2022-08-19T07:53:47;100810.28;;;18.26;100.00
55077;BME280;40971;44.702;11.030;2022-08-19T07:56:19;100801.53;;;18.25;100.00
55077;BME280;40971;44.702;11.030;2022-08-19T07:58:47;100807.78;;;18.24;100.00
55077;BME280;40971;44.702;11.030;2022-08-19T08:01:17;100804.34;;;18.13;100.00
55077;BME280;40971;44.702;11.030;2022-08-19T08:03:44;100797.66;;;18.09;100.00
55077;BME280;40971;44.702;11.030;2022-08-19T08:06:28;100814.59;;;18.27;100.00
55077;BME280;40971;44.702;11.030;2022-08-19T08:09:15;100751.72;;;18.00;100.00
55077;BME280;40971;44.702;11.030;2022-08-19T08:11:55;100814.53;;;18.38;100.00
55077;BME280;40971;44.702;11.030;2022-08-19T08:14:32;100809.06;;;18.51;100.00
55077;BME280;40971;44.702;11.030;2022-08-19T08:16:58;100798.06;;;18.55;100.00
55077;BME280;40971;44.702;11.030;2022-08-19T08:19:26;100810.75;;;18.61;100.00
55077;BME280;40971;44.702;11.030;2022-08-19T08:21:56;100779.34;;;18.47;100.00
55077;BME280;40971;44.702;11.030;2022-08-19T08:24:24;100800.56;;;18.57;100.00
55077;BME280;40971;44.702;11.030;2022-08-19T08:26:49;100797.88;;;18.47;100.00
55077;BME280;40971;44.702;11.030;2022-08-19T08:29:15;100793.06;;;18.62;100.00
55077;BME280;40971;44.702;11.030;2022-08-19T08:31:42;100805.97;;;18.76;100.00
55077;BME280;40971;44.702;11.030;2022-08-19T08:34:09;100807.06;;;19.04;100.00
55077;BME280;40971;44.702;11.030;2022-08-19T08:36:39;100817.00;;;19.31;100.00
55077;BME280;40971;44.702;11.030;2022-08-19T08:39:11;100810.25;;;19.87;100.00
55077;BME280;40971;44.702;11.030;2022-08-19T08:41:49;100825.41;;;20.13;100.00
55077;BME280;40971;44.702;11.030;2022-08-19T08:44:23;100811.16;;;20.43;100.00
55077;BME280;40971;44.702;11.030;2022-08-19T08:46:59;100807.66;;;20.53;100.00
55077;BME280;40971;44.702;11.030;2022-08-19T08:50:06;100826.34;;;21.16;100.00
55077;BME280;40971;44.702;11.030;2022-08-19T08:52:39;100831.22;;;21.83;100.00
55077;BME280;40971;44.702;11.030;2022-08-19T08:55:16;100818.56;;;21.77;100.00
55077;BME280;40971;44.702;11.030;2022-08-19T09:44:38;100863.84;;;22.73;97.99
55077;BME280;40971;44.702;11.030;2022-08-19T09:47:04;100864.94;;;22.62;100.00
55077;BME280;40971;44.702;11.030;2022-08-19T09:49:30;100867.31;;;22.99;97.78
55077;BME280;40971;44.702;11.030;2022-08-19T09:51:56;100814.09;;;23.16;100.00
55077;BME280;40971;44.702;11.030;2022-08-19T09:54:22;100859.09;;;23.77;91.77
55077;BME280;40971;44.702;11.030;2022-08-19T09:56:48;100870.16;;;23.48;90.36
55077;BME280;40971;44.702;11.030;2022-08-19T09:59:13;100812.59;;;23.05;95.82
55077;BME280;40971;44.702;11.030;2022-08-19T10:01:39;100859.94;;;24.10;93.48
55077;BME280;40971;44.702;11.030;2022-08-19T10:04:05;100865.97;;;24.53;87.27
55077;BME280;40971;44.702;11.030;2022-08-19T10:06:35;100834.97;;;24.83;89.07
55077;BME280;40971;44.702;11.030;2022-08-19T10:09:02;100863.13;;;25.10;84.70
55077;BME280;40971;44.702;11.030;2022-08-19T10:11:29;100850.38;;;24.65;83.71
55077;BME280;40971;44.702;11.030;2022-08-19T10:13:55;100809.41;;;24.33;87.00
55077;BME280;40971;44.702;11.030;2022-08-19T10:16:22;100856.94;;;24.21;87.28
55077;BME280;40971;44.702;11.030;2022-08-19T10:18:49;100851.44;;;24.47;85.02
55077;BME280;40971;44.702;11.030;2022-08-19T10:23:43;100837.59;;;24.99;80.91
55077;BME280;40971;44.702;11.030;2022-08-19T10:26:19;100837.00;;;25.51;80.62
55077;BME280;40971;44.702;11.030;2022-08-19T10:28:45;100745.22;;;24.74;77.12
55077;BME280;40971;44.702;11.030;2022-08-19T10:31:13;100839.94;;;24.94;79.65
55077;BME280;40971;44.702;11.030;2022-08-19T10:33:40;100792.94;;;24.77;82.80
55077;BME280;40971;44.702;11.030;2022-08-19T10:36:12;100837.94;;;25.35;78.66
55077;BME280;40971;44.702;11.030;2022-08-19T10:38:43;100841.44;;;24.97;82.30
55077;BME280;40971;44.702;11.030;2022-08-19T10:41:21;100834.78;;;25.32;79.46
55077;BME280;40971;44.702;11.030;2022-08-19T10:43:51;100828.78;;;25.30;77.39
55077;BME280;40971;44.702;11.030;2022-08-19T10:46:20;100824.34;;;24.75;80.41
55077;BME280;40971;44.702;11.030;2022-08-19T10:48:46;100812.13;;;24.80;80.36
55077;BME280;40971;44.702;11.030;2022-08-19T10:51:12;100816.78;;;25.79;75.60
55077;BME280;40971;44.702;11.030;2022-08-19T10:53:56;100800.41;;;26.35;73.02
55077;BME280;40971;44.702;11.030;2022-08-19T10:56:23;100802.00;;;26.74;69.12
55077;BME280;40971;44.702;11.030;2022-08-19T10:59:08;100742.75;;;26.09;70.38
55077;BME280;40971;44.702;11.030;2022-08-19T11:01:34;100801.03;;;25.31;74.34
55077;BME280;40971;44.702;11.030;2022-08-19T11:04:04;100814.56;;;24.43;78.93
55077;BME280;40971;44.702;11.030;2022-08-19T11:06:33;100821.06;;;23.59;82.47
55077;BME280;40971;44.702;11.030;2022-08-19T11:08:58;100815.31;;;23.29;86.08
55077;BME280;40971;44.702;11.030;2022-08-19T11:11:26;100769.09;;;22.62;88.64
55077;BME280;40971;44.702;11.030;2022-08-19T11:13:52;100815.59;;;23.02;90.87
55077;BME280;40971;44.702;11.030;2022-08-19T11:16:20;100773.41;;;23.80;79.37
55077;BME280;40971;44.702;11.030;2022-08-19T11:18:54;100766.41;;;23.95;79.37
55077;BME280;40971;44.702;11.030;2022-08-19T11:21:24;100792.16;;;24.52;81.28
55077;BME280;40971;44.702;11.030;2022-08-19T11:23:54;100757.84;;;24.88;77.61
55077;BME280;40971;44.702;11.030;2022-08-19T11:26:21;100808.53;;;25.35;70.52
55077;BME280;40971;44.702;11.030;2022-08-19T11:28:48;100763.09;;;25.81;72.62
55077;BME280;40971;44.702;11.030;2022-08-19T11:31:19;100801.16;;;26.44;66.41
55077;BME280;40971;44.702;11.030;2022-08-19T11:33:46;100809.66;;;26.62;67.63
55077;BME280;40971;44.702;11.030;2022-08-19T11:36:12;100791.41;;;26.87;65.83
55077;BME280;40971;44.702;11.030;2022-08-19T11:38:38;100810.97;;;27.53;68.58
55077;BME280;40971;44.702;11.030;2022-08-19T11:41:06;100811.94;;;26.94;63.19
55077;BME280;40971;44.702;11.030;2022-08-19T11:43:33;100765.88;;;26.55;63.06
55077;BME280;40971;44.702;11.030;2022-08-19T11:45:59;100803.47;;;26.61;65.67
55077;BME280;40971;44.702;11.030;2022-08-19T11:48:25;100800.53;;;25.58;69.01
55077;BME280;40971;44.702;11.030;2022-08-19T11:50:52;100802.72;;;24.53;74.04
55077;BME280;40971;44.702;11.030;2022-08-19T11:53:20;100770.44;;;25.33;73.61
55077;BME280;40971;44.702;11.030;2022-08-19T11:55:47;100793.88;;;26.37;69.41
55077;BME280;40971;44.702;11.030;2022-08-19T11:58:13;100798.19;;;26.68;68.23
55077;BME280;40971;44.702;11.030;2022-08-19T12:00:40;100801.84;;;26.96;67.52
55077;BME280;40971;44.702;11.030;2022-08-19T12:03:07;100792.47;;;27.58;63.74
55077;BME280;40971;44.702;11.030;2022-08-19T12:05:32;100747.91;;;27.21;58.15
55077;BME280;40971;44.702;11.030;2022-08-19T12:07:58;100780.97;;;27.85;58.07
55077;BME280;40971;44.702;11.030;2022-08-19T12:10:24;100784.50;;;27.65;57.28
55077;BME280;40971;44.702;11.030;2022-08-19T12:12:49;100796.38;;;28.05;56.22
55077;BME280;40971;44.702;11.030;2022-08-19T12:15:15;100787.13;;;28.35;59.30
55077;BME280;40971;44.702;11.030;2022-08-19T12:17:42;100781.41;;;28.17;57.90
55077;BME280;40971;44.702;11.030;2022-08-19T12:20:10;100741.50;;;27.58;59.40
55077;BME280;40971;44.702;11.030;2022-08-19T12:22:37;100787.06;;;27.15;59.99
55077;BME280;40971;44.702;11.030;2022-08-19T12:25:04;100788.28;;;26.24;64.76
55077;BME280;40971;44.702;11.030;2022-08-19T12:27:30;100783.22;;;26.88;58.66
55077;BME280;40971;44.702;11.030;2022-08-19T12:29:56;100773.28;;;27.61;56.54
55077;BME280;40971;44.702;11.030;2022-08-19T12:32:22;100771.19;;;28.27;56.29
55077;BME280;40971;44.702;11.030;2022-08-19T12:34:50;100774.94;;;28.33;55.32
55077;BME280;40971;44.702;11.030;2022-08-19T12:37:15;100767.56;;;27.64;56.55
55077;BME280;40971;44.702;11.030;2022-08-19T12:39:42;100718.31;;;26.93;58.44
55077;BME280;40971;44.702;11.030;2022-08-19T12:42:09;100767.22;;;26.80;60.82
55077;BME280;40971;44.702;11.030;2022-08-19T12:44:37;100761.09;;;26.86;65.24
55077;BME280;40971;44.702;11.030;2022-08-19T12:47:05;100767.50;;;26.26;61.72
55077;BME280;40971;44.702;11.030;2022-08-19T12:49:32;100762.88;;;26.05;60.87
55077;BME280;40971;44.702;11.030;2022-08-19T12:51:59;100770.75;;;25.61;63.32
55077;BME280;40971;44.702;11.030;2022-08-19T12:54:26;100769.22;;;25.44;64.79
55077;BME280;40971;44.702;11.030;2022-08-19T12:56:51;100714.22;;;25.64;63.83
55077;BME280;40971;44.702;11.030;2022-08-19T12:59:17;100689.31;;;24.95;66.31
55077;BME280;40971;44.702;11.030;2022-08-19T13:01:44;100763.03;;;24.81;71.13
55077;BME280;40971;44.702;11.030;2022-08-19T13:04:10;100766.75;;;24.72;72.20
55077;BME280;40971;44.702;11.030;2022-08-19T13:06:36;100770.72;;;24.29;75.09
55077;BME280;40971;44.702;11.030;2022-08-19T13:09:03;100787.94;;;24.02;79.04
55077;BME280;40971;44.702;11.030;2022-08-19T13:11:28;100775.41;;;23.94;78.27
55077;BME280;40971;44.702;11.030;2022-08-19T13:13:57;100784.56;;;24.00;75.81
55077;BME280;40971;44.702;11.030;2022-08-19T13:16:23;100780.75;;;23.94;78.21
55077;BME280;40971;44.702;11.030;2022-08-19T13:18:49;100733.59;;;23.62;77.21
55077;BME280;40971;44.702;11.030;2022-08-19T13:21:23;100781.59;;;24.03;74.52
55077;BME280;40971;44.702;11.030;2022-08-19T13:23:49;100762.25;;;23.93;78.03
55077;BME280;40971;44.702;11.030;2022-08-19T13:26:16;100748.41;;;23.97;76.84
55077;BME280;40971;44.702;11.030;2022-08-19T13:28:42;100731.03;;;24.10;77.70
55077;BME280;40971;44.702;11.030;2022-08-19T13:31:28;100763.38;;;24.78;77.25
55077;BME280;40971;44.702;11.030;2022-08-19T13:34:13;100772.06;;;25.19;76.04
55077;BME280;40971;44.702;11.030;2022-08-19T13:36:39;100764.84;;;25.74;72.26
55077;BME280;40971;44.702;11.030;2022-08-19T13:39:06;100764.22;;;25.64;71.54
55077;BME280;40971;44.702;11.030;2022-08-19T13:41:33;100765.53;;;25.91;68.74
55077;BME280;40971;44.702;11.030;2022-08-19T13:43:58;100668.34;;;26.20;64.49
55077;BME280;40971;44.702;11.030;2022-08-19T13:46:24;100741.56;;;27.43;61.52
55077;BME280;40971;44.702;11.030;2022-08-19T13:48:49;100759.78;;;26.46;63.16
55077;BME280;40971;44.702;11.030;2022-08-19T13:51:16;100766.13;;;26.75;62.84
55077;BME280;40971;44.702;11.030;2022-08-19T13:53:43;100764.41;;;26.00;62.15
55077;BME280;40971;44.702;11.030;2022-08-19T13:56:12;100767.72;;;25.41;62.40
55077;BME280;40971;44.702;11.030;2022-08-19T13:58:39;100726.72;;;25.03;63.04
55077;BME280;40971;44.702;11.030;2022-08-19T14:01:05;100763.72;;;25.14;62.26
55077;BME280;40971;44.702;11.030;2022-08-19T14:03:32;100749.91;;;24.72;67.46
55077;BME280;40971;44.702;11.030;2022-08-19T14:05:58;100732.59;;;24.59;67.21
55077;BME280;40971;44.702;11.030;2022-08-19T14:08:25;100781.94;;;24.72;72.40
55077;BME280;40971;44.702;11.030;2022-08-19T14:10:50;100770.06;;;24.19;72.87
55077;BME280;40971;44.702;11.030;2022-08-19T14:13:18;100796.44;;;23.73;79.77
55077;BME280;40971;44.702;11.030;2022-08-19T14:15:45;100806.13;;;23.16;84.22
55077;BME280;40971;44.702;11.030;2022-08-19T14:18:10;100795.38;;;22.57;92.07
55077;BME280;40971;44.702;11.030;2022-08-19T14:20:37;100803.09;;;21.99;95.16
55077;BME280;40971;44.702;11.030;2022-08-19T14:23:03;100784.53;;;21.00;100.00
55077;BME280;40971;44.702;11.030;2022-08-19T14:25:32;100806.00;;;21.07;100.00
55077;BME280;40971;44.702;11.030;2022-08-19T14:27:58;100760.78;;;20.71;100.00
55077;BME280;40971;44.702;11.030;2022-08-19T14:30:29;100800.31;;;21.01;100.00
55077;BME280;40971;44.702;11.030;2022-08-19T14:32:57;100792.59;;;21.08;100.00
55077;BME280;40971;44.702;11.030;2022-08-19T14:35:24;100784.28;;;20.93;100.00
55077;BME280;40971;44.702;11.030;2022-08-19T14:37:50;100783.44;;;21.20;100.00
55077;BME280;40971;44.702;11.030;2022-08-19T14:40:23;100772.75;;;21.30;100.00
55077;BME280;40971;44.702;11.030;2022-08-19T14:42:57;100770.50;;;21.53;97.13
55077;BME280;40971;44.702;11.030;2022-08-19T14:45:32;100778.00;;;21.75;93.20
55077;BME280;40971;44.702;11.030;2022-08-19T14:47:58;100761.03;;;21.94;97.38
55077;BME280;40971;44.702;11.030;2022-08-19T14:50:27;100763.19;;;22.16;97.01
55077;BME280;40971;44.702;11.030;2022-08-19T14:53:04;100781.69;;;22.18;88.90
55077;BME280;40971;44.702;11.030;2022-08-19T14:55:31;100783.19;;;22.20;88.58
55077;BME280;40971;44.702;11.030;2022-08-19T14:57:57;100796.22;;;22.06;88.97
55077;BME280;40971;44.702;11.030;2022-08-19T15:00:23;100735.81;;;21.37;91.35
55077;BME280;40971;44.702;11.030;2022-08-19T15:02:50;100792.59;;;21.36;97.78
55077;BME280;40971;44.702;11.030;2022-08-19T15:05:15;100799.56;;;21.09;100.00
55077;BME280;40971;44.702;11.030;2022-08-19T15:07:42;100725.41;;;20.53;100.00
55077;BME280;40971;44.702;11.030;2022-08-19T15:10:09;100727.25;;;20.42;100.00
55077;BME280;40971;44.702;11.030;2022-08-19T15:12:36;100772.88;;;20.83;100.00
55077;BME280;40971;44.702;11.030;2022-08-19T15:15:03;100723.59;;;20.53;100.00
55077;BME280;40971;44.702;11.030;2022-08-19T15:17:29;100711.50;;;20.68;100.00
55077;BME280;40971;44.702;11.030;2022-08-19T15:19:55;100771.13;;;21.19;100.00
55077;BME280;40971;44.702;11.030;2022-08-19T15:22:21;100734.22;;;20.98;100.00
55077;BME280;40971;44.702;11.030;2022-08-19T15:24:47;100722.59;;;20.99;100.00
55077;BME280;40971;44.702;11.030;2022-08-19T15:27:13;100770.56;;;21.25;100.00
55077;BME280;40971;44.702;11.030;2022-08-19T15:29:39;100779.56;;;21.32;100.00
55077;BME280;40971;44.702;11.030;2022-08-19T15:32:06;100779.88;;;21.29;100.00
55077;BME280;40971;44.702;11.030;2022-08-19T15:34:33;100752.25;;;21.22;100.00
55077;BME280;40971;44.702;11.030;2022-08-19T15:36:59;100753.81;;;21.15;100.00
55077;BME280;40971;44.702;11.030;2022-08-19T15:39:25;100731.28;;;21.01;100.00
55077;BME280;40971;44.702;11.030;2022-08-19T15:41:50;100734.38;;;21.15;100.00
55077;BME280;40971;44.702;11.030;2022-08-19T15:44:17;100727.66;;;21.20;100.00
55077;BME280;40971;44.702;11.030;2022-08-19T15:46:44;100783.47;;;21.74;100.00
55077;BME280;40971;44.702;11.030;2022-08-19T15:49:12;100731.06;;;21.66;100.00
55077;BME280;40971;44.702;11.030;2022-08-19T15:51:39;100718.75;;;21.65;100.00
55077;BME280;40971;44.702;11.030;2022-08-19T15:54:07;100737.59;;;21.72;100.00
55077;BME280;40971;44.702;11.030;2022-08-19T15:56:33;100762.16;;;21.91;100.00
55077;BME280;40971;44.702;11.030;2022-08-19T15:59:17;100758.28;;;22.04;100.00
55077;BME280;40971;44.702;11.030;2022-08-19T16:02:02;100760.13;;;22.29;100.00
55077;BME280;40971;44.702;11.030;2022-08-19T16:04:45;100772.25;;;22.92;100.00
55077;BME280;40971;44.702;11.030;2022-08-19T16:07:30;100773.41;;;23.96;100.00
55077;BME280;40971;44.702;11.030;2022-08-19T16:09:55;100775.09;;;23.89;100.00
55077;BME280;40971;44.702;11.030;2022-08-19T16:12:20;100787.41;;;23.82;98.69
55077;BME280;40971;44.702;11.030;2022-08-19T16:14:52;100778.94;;;23.70;92.05
55077;BME280;40971;44.702;11.030;2022-08-19T16:17:18;100788.09;;;23.76;93.69
55077;BME280;40971;44.702;11.030;2022-08-19T16:19:44;100784.44;;;23.77;88.40
55077;BME280;40971;44.702;11.030;2022-08-19T16:22:10;100787.09;;;23.85;86.70
55077;BME280;40971;44.702;11.030;2022-08-19T16:24:35;100748.06;;;23.44;87.77
55077;BME280;40971;44.702;11.030;2022-08-19T16:27:02;100745.53;;;23.26;88.03
55077;BME280;40971;44.702;11.030;2022-08-19T16:29:27;100791.59;;;23.60;91.13
55077;BME280;40971;44.702;11.030;2022-08-19T16:31:53;100785.75;;;23.57;92.83
55077;BME280;40971;44.702;11.030;2022-08-19T16:34:21;100776.34;;;23.28;88.33
55077;BME280;40971;44.702;11.030;2022-08-19T16:36:47;100790.66;;;23.27;89.07
55077;BME280;40971;44.702;11.030;2022-08-19T16:39:14;100788.00;;;23.27;87.71
55077;BME280;40971;44.702;11.030;2022-08-19T16:41:41;100774.97;;;23.08;88.70
55077;BME280;40971;44.702;11.030;2022-08-19T16:44:08;100794.66;;;23.31;93.03
55077;BME280;40971;44.702;11.030;2022-08-19T16:46:34;100785.00;;;23.22;91.03
55077;BME280;40971;44.702;11.030;2022-08-19T16:49:02;100783.03;;;23.49;88.55
55077;BME280;40971;44.702;11.030;2022-08-19T16:51:27;100727.56;;;23.44;85.42
55077;BME280;40971;44.702;11.030;2022-08-19T16:53:53;100733.38;;;23.23;87.84
55077;BME280;40971;44.702;11.030;2022-08-19T16:56:19;100777.88;;;23.39;89.20
55077;BME280;40971;44.702;11.030;2022-08-19T16:58:45;100785.84;;;23.31;89.30
55077;BME280;40971;44.702;11.030;2022-08-19T17:01:12;100775.69;;;23.51;88.26
55077;BME280;40971;44.702;11.030;2022-08-19T17:03:38;100777.59;;;23.91;86.98
55077;BME280;40971;44.702;11.030;2022-08-19T17:06:13;100743.75;;;23.83;84.49
55077;BME280;40971;44.702;11.030;2022-08-19T17:08:39;100782.88;;;24.32;82.27
55077;BME280;40971;44.702;11.030;2022-08-19T17:11:05;100783.06;;;24.38;81.00
55077;BME280;40971;44.702;11.030;2022-08-19T17:13:30;100759.91;;;24.06;79.01
55077;BME280;40971;44.702;11.030;2022-08-19T17:15:56;100770.41;;;23.91;77.55
55077;BME280;40971;44.702;11.030;2022-08-19T18:08:19;100825.53;;;21.78;100.00
55077;BME280;40971;44.702;11.030;2022-08-19T18:10:44;100816.34;;;21.73;100.00
55077;BME280;40971;44.702;11.030;2022-08-19T18:13:09;100836.63;;;21.74;100.00
55077;BME280;40971;44.702;11.030;2022-08-19T18:15:37;100851.91;;;21.72;100.00
55077;BME280;40971;44.702;11.030;2022-08-19T18:18:03;100834.81;;;21.56;100.00
55077;BME280;40971;44.702;11.030;2022-08-19T18:20:28;100768.84;;;21.07;100.00
55077;BME280;40971;44.702;11.030;2022-08-19T18:22:54;100846.59;;;21.26;100.00
55077;BME280;40971;44.702;11.030;2022-08-19T18:25:25;100835.59;;;21.12;100.00
55077;BME280;40971;44.702;11.030;2022-08-19T18:27:55;100839.44;;;20.99;100.00
55077;BME280;40971;44.702;11.030;2022-08-19T18:30:21;100841.81;;;21.02;100.00
55077;BME280;40971;44.702;11.030;2022-08-19T18:32:48;100842.09;;;20.99;100.00
55077;BME280;40971;44.702;11.030;2022-08-19T18:35:22;100778.03;;;20.57;100.00
55077;BME280;40971;44.702;11.030;2022-08-19T18:37:50;100817.34;;;20.71;100.00
55077;BME280;40971;44.702;11.030;2022-08-19T18:40:18;100848.47;;;20.79;100.00
55077;BME280;40971;44.702;11.030;2022-08-19T18:43:03;100861.94;;;20.68;100.00
55077;BME280;40971;44.702;11.030;2022-08-19T18:45:44;100814.22;;;20.49;100.00
55077;BME280;40971;44.702;11.030;2022-08-19T18:48:28;100870.69;;;20.78;100.00
55077;BME280;40971;44.702;11.030;2022-08-19T18:51:14;100863.63;;;20.59;100.00
55077;BME280;40971;44.702;11.030;2022-08-19T18:53:41;100872.03;;;20.55;100.00
55077;BME280;40971;44.702;11.030;2022-08-19T18:56:09;100864.06;;;20.55;100.00
55077;BME280;40971;44.702;11.030;2022-08-19T18:58:36;100873.69;;;20.56;100.00
55077;BME280;40971;44.702;11.030;2022-08-19T19:01:11;100872.03;;;20.55;100.00
55077;BME280;40971;44.702;11.030;2022-08-19T19:03:38;100871.72;;;20.48;100.00
55077;BME280;40971;44.702;11.030;2022-08-19T19:06:07;100884.75;;;20.41;100.00
55077;BME280;40971;44.702;11.030;2022-08-19T19:08:33;100881.22;;;20.31;100.00
55077;BME280;40971;44.702;11.030;2022-08-19T19:10:59;100882.78;;;20.24;100.00
55077;BME280;40971;44.702;11.030;2022-08-19T19:13:31;100882.94;;;20.23;100.00
55077;BME280;40971;44.702;11.030;2022-08-19T19:15:57;100859.63;;;20.07;100.00
55077;BME280;40971;44.702;11.030;2022-08-19T19:18:26;100891.03;;;20.21;100.00
55077;BME280;40971;44.702;11.030;2022-08-19T19:20:51;100880.56;;;20.10;100.00
55077;BME280;40971;44.702;11.030;2022-08-19T19:23:17;100837.84;;;19.65;100.00
55077;BME280;40971;44.702;11.030;2022-08-19T19:25:42;100887.09;;;19.77;100.00
55077;BME280;40971;44.702;11.030;2022-08-19T19:28:09;100898.25;;;19.80;100.00
55077;BME280;40971;44.702;11.030;2022-08-19T19:30:35;100884.31;;;19.78;100.00
55077;BME280;40971;44.702;11.030;2022-08-19T19:33:00;100891.28;;;19.79;100.00
55077;BME280;40971;44.702;11.030;2022-08-19T19:35:26;100886.00;;;19.70;100.00
55077;BME280;40971;44.702;11.030;2022-08-19T19:37:54;100897.84;;;19.75;100.00
55077;BME280;40971;44.702;11.030;2022-08-19T19:40:20;100873.84;;;19.67;100.00
55077;BME280;40971;44.702;11.030;2022-08-19T19:42:47;100891.84;;;19.73;100.00
55077;BME280;40971;44.702;11.030;2022-08-19T19:45:15;100904.53;;;19.70;100.00
55077;BME280;40971;44.702;11.030;2022-08-19T19:47:41;100896.31;;;19.73;100.00
55077;BME280;40971;44.702;11.030;2022-08-19T19:50:12;100902.69;;;19.61;100.00
55077;BME280;40971;44.702;11.030;2022-08-19T19:52:41;100908.97;;;19.60;100.00
55077;BME280;40971;44.702;11.030;2022-08-19T19:55:08;100904.78;;;19.57;100.00
55077;BME280;40971;44.702;11.030;2022-08-19T19:57:34;100905.75;;;19.56;100.00
55077;BME280;40971;44.702;11.030;2022-08-19T19:59:59;100914.38;;;19.48;100.00
55077;BME280;40971;44.702;11.030;2022-08-19T20:02:25;100925.97;;;19.57;100.00
55077;BME280;40971;44.702;11.030;2022-08-19T20:04:51;100930.47;;;19.66;100.00
55077;BME280;40971;44.702;11.030;2022-08-19T20:07:18;100810.78;;;18.92;100.00
55077;BME280;40971;44.702;11.030;2022-08-19T20:10:04;100926.69;;;19.59;100.00
55077;BME280;40971;44.702;11.030;2022-08-19T20:12:29;100935.56;;;19.48;100.00
55077;BME280;40971;44.702;11.030;2022-08-19T20:14:54;100811.25;;;18.67;100.00
55077;BME280;40971;44.702;11.030;2022-08-19T20:17:20;100857.41;;;18.83;100.00
55077;BME280;40971;44.702;11.030;2022-08-19T20:19:45;100930.16;;;19.19;100.00
55077;BME280;40971;44.702;11.030;2022-08-19T20:22:11;100932.47;;;19.13;100.00
55077;BME280;40971;44.702;11.030;2022-08-19T20:24:38;100934.06;;;19.25;100.00
55077;BME280;40971;44.702;11.030;2022-08-19T20:27:06;100904.09;;;19.15;100.00
55077;BME280;40971;44.702;11.030;2022-08-19T20:29:32;100932.59;;;19.11;100.00
55077;BME280;40971;44.702;11.030;2022-08-19T20:31:57;100931.88;;;19.00;100.00
55077;BME280;40971;44.702;11.030;2022-08-19T20:34:22;100931.03;;;18.99;100.00